sensor_id;sensor_type;location;lat;lon;timestamp;P1;durP1;ratioP1;P2;durP2;ratioP2
9906;SDS011;4992;51.628;6.664;2022-07-23T00:02:05;3.85;;;3.25;;
9906;SDS011;4992;51.628;6.664;2022-07-23T00:04:32;4.22;;;3.05;;
9906;SDS011;4992;51.628;6.664;2022-07-23T00:06:58;2.90;;;2.63;;
9906;SDS011;4992;51.628;6.664;2022-07-23T00:09:23;4.65;;;3.15;;
9906;SDS011;4992;51.628;6.664;2022-07-23T00:11:49;4.10;;;3.00;;
9906;SDS011;4992;51.628;6.664;2022-07-23T00:14:14;3.55;;;3.22;;
9906;SDS011;4992;51.628;6.664;2022-07-23T00:16:40;3.47;;;3.17;;
9906;SDS011;4992;51.628;6.664;2022-07-23T00:19:05;5.28;;;3.55;;
9906;SDS011;4992;51.628;6.664;2022-07-23T00:21:31;5.30;;;4.05;;
9906;SDS011;4992;51.628;6.664;2022-07-23T00:23:56;4.28;;;3.63;;
9906;SDS011;4992;51.628;6.664;2022-07-23T00:26:22;5.10;;;3.50;;
9906;SDS011;4992;51.628;6.664;2022-07-23T00:28:48;4.50;;;3.40;;
9906;SDS011;4992;51.628;6.664;2022-07-23T00:31:13;5.70;;;3.50;;
9906;SDS011;4992;51.628;6.664;2022-07-23T00:33:39;3.83;;;3.53;;
9906;SDS011;4992;51.628;6.664;2022-07-23T00:36:04;4.13;;;3.72;;
9906;SDS011;4992;51.628;6.664;2022-07-23T00:38:30;5.25;;;3.55;;
9906;SDS011;4992;51.628;6.664;2022-07-23T00:40:56;5.55;;;3.95;;
9906;SDS011;4992;51.628;6.664;2022-07-23T00:43:21;4.45;;;4.07;;
9906;SDS011;4992;51.628;6.664;2022-07-23T00:45:48;6.78;;;3.75;;
9906;SDS011;4992;51.628;6.664;2022-07-23T00:48:14;5.90;;;4.65;;
9906;SDS011;4992;51.628;6.664;2022-07-23T00:50:39;5.40;;;4.13;;
9906;SDS011;4992;51.628;6.664;2022-07-23T00:53:05;4.10;;;3.70;;
9906;SDS011;4992;51.628;6.664;2022-07-23T00:55:31;6.93;;;3.92;;
9906;SDS011;4992;51.628;6.664;2022-07-23T00:57:57;4.38;;;3.92;;
9906;SDS011;4992;51.628;6.664;2022-07-23T01:00:23;5.28;;;4.50;;
9906;SDS011;4992;51.628;6.664;2022-07-23T01:02:49;7.78;;;4.78;;
9906;SDS011;4992;51.628;6.664;2022-07-23T01:05:15;7.32;;;4.28;;
9906;SDS011;4992;51.628;6.664;2022-07-23T01:07:42;4.47;;;4.07;;
9906;SDS011;4992;51.628;6.664;2022-07-23T01:10:08;6.45;;;4.07;;
9906;SDS011;4992;51.628;6.664;2022-07-23T01:12:53;5.93;;;3.85;;
9906;SDS011;4992;51.628;6.664;2022-07-23T01:15:18;6.60;;;3.97;;
9906;SDS011;4992;51.628;6.664;2022-07-23T01:17:44;4.65;;;4.07;;
9906;SDS011;4992;51.628;6.664;2022-07-23T01:20:09;5.18;;;4.57;;
9906;SDS011;4992;51.628;6.664;2022-07-23T01:22:35;5.05;;;4.32;;
9906;SDS011;4992;51.628;6.664;2022-07-23T01:25:01;5.30;;;3.97;;
9906;SDS011;4992;51.628;6.664;2022-07-23T01:27:26;8.15;;;4.10;;
9906;SDS011;4992;51.628;6.664;2022-07-23T01:29:52;4.90;;;4.45;;
9906;SDS011;4992;51.628;6.664;2022-07-23T01:32:19;8.18;;;4.15;;
9906;SDS011;4992;51.628;6.664;2022-07-23T01:34:44;4.93;;;4.50;;
9906;SDS011;4992;51.628;6.664;2022-07-23T01:37:10;7.72;;;4.60;;
9906;SDS011;4992;51.628;6.664;2022-07-23T01:39:35;5.75;;;4.70;;
9906;SDS011;4992;51.628;6.664;2022-07-23T01:42:01;5.38;;;4.38;;
9906;SDS011;4992;51.628;6.664;2022-07-23T01:44:26;4.70;;;4.28;;
9906;SDS011;4992;51.628;6.664;2022-07-23T01:46:52;6.07;;;4.10;;
9906;SDS011;4992;51.628;6.664;2022-07-23T01:49:17;5.45;;;4.30;;
9906;SDS011;4992;51.628;6.664;2022-07-23T01:51:43;4.47;;;4.07;;
9906;SDS011;4992;51.628;6.664;2022-07-23T01:54:27;6.32;;;4.78;;
9906;SDS011;4992;51.628;6.664;2022-07-23T01:56:57;6.05;;;5.07;;
9906;SDS011;4992;51.628;6.664;2022-07-23T01:59:23;6.82;;;4.72;;
9906;SDS011;4992;51.628;6.664;2022-07-23T02:01:49;6.13;;;5.05;;
9906;SDS011;4992;51.628;6.664;2022-07-23T02:04:16;5.63;;;4.88;;
9906;SDS011;4992;51.628;6.664;2022-07-23T02:06:45;5.55;;;4.95;;
9906;SDS011;4992;51.628;6.664;2022-07-23T02:09:11;5.22;;;4.75;;
9906;SDS011;4992;51.628;6.664;2022-07-23T02:11:37;5.13;;;4.70;;
9906;SDS011;4992;51.628;6.664;2022-07-23T02:14:02;5.35;;;4.85;;
9906;SDS011;4992;51.628;6.664;2022-07-23T02:16:28;5.03;;;4.55;;
9906;SDS011;4992;51.628;6.664;2022-07-23T02:18:54;7.30;;;5.25;;
9906;SDS011;4992;51.628;6.664;2022-07-23T02:21:19;4.93;;;4.53;;
9906;SDS011;4992;51.628;6.664;2022-07-23T02:23:45;5.43;;;5.03;;
9906;SDS011;4992;51.628;6.664;2022-07-23T02:26:10;6.75;;;4.63;;
9906;SDS011;4992;51.628;6.664;2022-07-23T02:28:36;5.72;;;4.75;;
9906;SDS011;4992;51.628;6.664;2022-07-23T02:31:02;5.60;;;4.93;;
9906;SDS011;4992;51.628;6.664;2022-07-23T02:33:28;5.40;;;4.45;;
9906;SDS011;4992;51.628;6.664;2022-07-23T02:35:54;8.98;;;4.97;;
9906;SDS011;4992;51.628;6.664;2022-07-23T02:38:19;5.68;;;4.47;;
9906;SDS011;4992;51.628;6.664;2022-07-23T02:40:45;6.03;;;4.50;;
9906;SDS011;4992;51.628;6.664;2022-07-23T02:43:11;7.88;;;4.90;;
9906;SDS011;4992;51.628;6.664;2022-07-23T02:45:36;5.07;;;4.30;;
9906;SDS011;4992;51.628;6.664;2022-07-23T02:48:02;5.72;;;5.22;;
9906;SDS011;4992;51.628;6.664;2022-07-23T02:50:28;5.43;;;4.93;;
9906;SDS011;4992;51.628;6.664;2022-07-23T02:52:53;6.45;;;4.82;;
9906;SDS011;4992;51.628;6.664;2022-07-23T02:55:19;5.65;;;5.13;;
9906;SDS011;4992;51.628;6.664;2022-07-23T02:57:44;9.80;;;5.97;;
9906;SDS011;4992;51.628;6.664;2022-07-23T03:00:10;5.80;;;4.95;;
9906;SDS011;4992;51.628;6.664;2022-07-23T03:02:36;6.68;;;5.43;;
9906;SDS011;4992;51.628;6.664;2022-07-23T03:05:01;6.70;;;4.82;;
9906;SDS011;4992;51.628;6.664;2022-07-23T03:07:27;5.47;;;4.85;;
9906;SDS011;4992;51.628;6.664;2022-07-23T03:09:53;5.85;;;5.35;;
9906;SDS011;4992;51.628;6.664;2022-07-23T03:12:18;5.65;;;5.15;;
9906;SDS011;4992;51.628;6.664;2022-07-23T03:14:44;6.78;;;5.70;;
9906;SDS011;4992;51.628;6.664;2022-07-23T03:17:09;6.20;;;5.63;;
9906;SDS011;4992;51.628;6.664;2022-07-23T03:19:35;6.25;;;5.60;;
9906;SDS011;4992;51.628;6.664;2022-07-23T03:22:02;8.57;;;5.60;;
9906;SDS011;4992;51.628;6.664;2022-07-23T03:24:28;8.80;;;5.93;;
9906;SDS011;4992;51.628;6.664;2022-07-23T03:27:13;6.35;;;5.25;;
9906;SDS011;4992;51.628;6.664;2022-07-23T03:29:39;11.45;;;6.72;;
9906;SDS011;4992;51.628;6.664;2022-07-23T03:32:05;7.20;;;6.10;;
9906;SDS011;4992;51.628;6.664;2022-07-23T03:34:30;7.45;;;5.68;;
9906;SDS011;4992;51.628;6.664;2022-07-23T03:36:56;6.82;;;5.53;;
9906;SDS011;4992;51.628;6.664;2022-07-23T03:39:22;7.70;;;6.20;;
9906;SDS011;4992;51.628;6.664;2022-07-23T03:41:47;5.78;;;5.28;;
9906;SDS011;4992;51.628;6.664;2022-07-23T03:44:12;6.65;;;6.05;;
9906;SDS011;4992;51.628;6.664;2022-07-23T03:46:38;6.35;;;5.78;;
9906;SDS011;4992;51.628;6.664;2022-07-23T03:49:03;8.05;;;6.40;;
9906;SDS011;4992;51.628;6.664;2022-07-23T03:51:29;11.77;;;6.82;;
9906;SDS011;4992;51.628;6.664;2022-07-23T03:53:54;6.60;;;6.03;;
9906;SDS011;4992;51.628;6.664;2022-07-23T03:56:20;8.35;;;7.38;;
9906;SDS011;4992;51.628;6.664;2022-07-23T03:58:46;8.55;;;7.28;;
9906;SDS011;4992;51.628;6.664;2022-07-23T04:01:12;9.20;;;7.32;;
9906;SDS011;4992;51.628;6.664;2022-07-23T04:03:37;7.35;;;6.38;;
9906;SDS011;4992;51.628;6.664;2022-07-23T04:06:03;7.70;;;6.88;;
9906;SDS011;4992;51.628;6.664;2022-07-23T04:08:28;8.10;;;7.30;;
9906;SDS011;4992;51.628;6.664;2022-07-23T04:10:54;9.13;;;8.15;;
9906;SDS011;4992;51.628;6.664;2022-07-23T04:13:20;9.27;;;7.47;;
9906;SDS011;4992;51.628;6.664;2022-07-23T04:15:45;10.05;;;7.88;;
9906;SDS011;4992;51.628;6.664;2022-07-23T04:18:11;8.05;;;7.03;;
9906;SDS011;4992;51.628;6.664;2022-07-23T04:20:37;7.60;;;7.00;;
9906;SDS011;4992;51.628;6.664;2022-07-23T04:23:02;7.82;;;7.05;;
9906;SDS011;4992;51.628;6.664;2022-07-23T04:25:28;8.07;;;7.28;;
9906;SDS011;4992;51.628;6.664;2022-07-23T04:27:53;8.35;;;7.22;;
9906;SDS011;4992;51.628;6.664;2022-07-23T04:30:19;9.10;;;7.78;;
9906;SDS011;4992;51.628;6.664;2022-07-23T04:32:45;9.15;;;8.00;;
9906;SDS011;4992;51.628;6.664;2022-07-23T04:35:10;9.63;;;8.20;;
9906;SDS011;4992;51.628;6.664;2022-07-23T04:37:36;9.07;;;8.20;;
9906;SDS011;4992;51.628;6.664;2022-07-23T04:40:01;8.55;;;7.75;;
9906;SDS011;4992;51.628;6.664;2022-07-23T04:42:27;8.35;;;7.57;;
9906;SDS011;4992;51.628;6.664;2022-07-23T04:44:53;8.57;;;7.70;;
9906;SDS011;4992;51.628;6.664;2022-07-23T04:47:18;8.80;;;7.88;;
9906;SDS011;4992;51.628;6.664;2022-07-23T04:49:44;8.52;;;7.70;;
9906;SDS011;4992;51.628;6.664;2022-07-23T04:52:09;8.73;;;7.72;;
9906;SDS011;4992;51.628;6.664;2022-07-23T04:54:35;8.45;;;7.53;;
9906;SDS011;4992;51.628;6.664;2022-07-23T04:57:00;8.80;;;7.93;;
9906;SDS011;4992;51.628;6.664;2022-07-23T04:59:26;9.10;;;8.13;;
9906;SDS011;4992;51.628;6.664;2022-07-23T05:01:51;8.60;;;7.75;;
9906;SDS011;4992;51.628;6.664;2022-07-23T05:04:17;8.27;;;7.53;;
9906;SDS011;4992;51.628;6.664;2022-07-23T05:06:42;8.75;;;7.88;;
9906;SDS011;4992;51.628;6.664;2022-07-23T05:09:08;8.88;;;7.30;;
9906;SDS011;4992;51.628;6.664;2022-07-23T05:11:33;8.57;;;7.50;;
9906;SDS011;4992;51.628;6.664;2022-07-23T05:13:59;7.82;;;7.10;;
9906;SDS011;4992;51.628;6.664;2022-07-23T05:16:24;7.70;;;7.00;;
9906;SDS011;4992;51.628;6.664;2022-07-23T05:18:50;7.40;;;6.68;;
9906;SDS011;4992;51.628;6.664;2022-07-23T05:21:15;8.75;;;7.45;;
9906;SDS011;4992;51.628;6.664;2022-07-23T05:23:41;7.82;;;6.97;;
9906;SDS011;4992;51.628;6.664;2022-07-23T05:26:06;8.82;;;6.55;;
9906;SDS011;4992;51.628;6.664;2022-07-23T05:28:32;8.48;;;6.63;;
9906;SDS011;4992;51.628;6.664;2022-07-23T05:30:57;7.35;;;6.65;;
9906;SDS011;4992;51.628;6.664;2022-07-23T05:33:23;8.02;;;6.65;;
9906;SDS011;4992;51.628;6.664;2022-07-23T05:35:48;14.30;;;7.20;;
9906;SDS011;4992;51.628;6.664;2022-07-23T05:38:14;6.80;;;6.20;;
9906;SDS011;4992;51.628;6.664;2022-07-23T05:40:39;10.07;;;6.38;;
9906;SDS011;4992;51.628;6.664;2022-07-23T05:43:05;9.13;;;6.55;;
9906;SDS011;4992;51.628;6.664;2022-07-23T05:45:30;6.60;;;6.00;;
9906;SDS011;4992;51.628;6.664;2022-07-23T05:47:56;6.95;;;6.03;;
9906;SDS011;4992;51.628;6.664;2022-07-23T05:50:22;6.25;;;5.65;;
9906;SDS011;4992;51.628;6.664;2022-07-23T05:52:47;8.65;;;6.40;;
9906;SDS011;4992;51.628;6.664;2022-07-23T05:55:13;6.55;;;5.95;;
9906;SDS011;4992;51.628;6.664;2022-07-23T05:57:39;9.05;;;6.05;;
9906;SDS011;4992;51.628;6.664;2022-07-23T06:00:06;6.68;;;5.95;;
9906;SDS011;4992;51.628;6.664;2022-07-23T06:02:33;7.35;;;6.10;;
9906;SDS011;4992;51.628;6.664;2022-07-23T06:04:59;7.07;;;6.38;;
9906;SDS011;4992;51.628;6.664;2022-07-23T06:07:24;6.05;;;5.53;;
9906;SDS011;4992;51.628;6.664;2022-07-23T06:09:50;6.95;;;5.88;;
9906;SDS011;4992;51.628;6.664;2022-07-23T06:12:16;7.55;;;5.97;;
9906;SDS011;4992;51.628;6.664;2022-07-23T06:14:41;5.90;;;5.40;;
9906;SDS011;4992;51.628;6.664;2022-07-23T06:17:07;6.70;;;5.15;;
9906;SDS011;4992;51.628;6.664;2022-07-23T06:19:33;5.97;;;5.20;;
9906;SDS011;4992;51.628;6.664;2022-07-23T06:21:59;8.68;;;6.18;;
9906;SDS011;4992;51.628;6.664;2022-07-23T06:24:24;6.00;;;5.40;;
9906;SDS011;4992;51.628;6.664;2022-07-23T06:26:50;6.55;;;5.85;;
9906;SDS011;4992;51.628;6.664;2022-07-23T06:29:16;5.97;;;5.47;;
9906;SDS011;4992;51.628;6.664;2022-07-23T06:31:41;9.02;;;5.95;;
9906;SDS011;4992;51.628;6.664;2022-07-23T06:34:07;5.82;;;5.30;;
9906;SDS011;4992;51.628;6.664;2022-07-23T06:36:32;5.75;;;5.03;;
9906;SDS011;4992;51.628;6.664;2022-07-23T06:38:58;5.80;;;4.70;;
9906;SDS011;4992;51.628;6.664;2022-07-23T06:41:23;6.22;;;4.95;;
9906;SDS011;4992;51.628;6.664;2022-07-23T06:43:49;5.05;;;4.55;;
9906;SDS011;4992;51.628;6.664;2022-07-23T06:46:15;5.75;;;5.15;;
9906;SDS011;4992;51.628;6.664;2022-07-23T06:48:40;6.68;;;4.00;;
9906;SDS011;4992;51.628;6.664;2022-07-23T06:51:06;5.38;;;4.47;;
9906;SDS011;4992;51.628;6.664;2022-07-23T06:53:31;4.57;;;4.18;;
9906;SDS011;4992;51.628;6.664;2022-07-23T06:55:57;4.93;;;4.45;;
9906;SDS011;4992;51.628;6.664;2022-07-23T06:58:22;4.57;;;3.83;;
9906;SDS011;4992;51.628;6.664;2022-07-23T07:00:48;4.15;;;3.25;;
9906;SDS011;4992;51.628;6.664;2022-07-23T07:03:13;4.55;;;3.58;;
9906;SDS011;4992;51.628;6.664;2022-07-23T07:05:41;3.95;;;3.55;;
9906;SDS011;4992;51.628;6.664;2022-07-23T07:08:06;4.68;;;3.60;;
9906;SDS011;4992;51.628;6.664;2022-07-23T07:10:32;5.90;;;3.28;;
9906;SDS011;4992;51.628;6.664;2022-07-23T07:12:57;2.40;;;2.20;;
9906;SDS011;4992;51.628;6.664;2022-07-23T07:15:23;3.53;;;2.30;;
9906;SDS011;4992;51.628;6.664;2022-07-23T07:17:52;5.07;;;2.75;;
9906;SDS011;4992;51.628;6.664;2022-07-23T07:20:17;5.07;;;2.47;;
9906;SDS011;4992;51.628;6.664;2022-07-23T07:22:43;2.83;;;2.35;;
9906;SDS011;4992;51.628;6.664;2022-07-23T07:25:09;3.63;;;2.70;;
9906;SDS011;4992;51.628;6.664;2022-07-23T07:27:34;3.08;;;2.50;;
9906;SDS011;4992;51.628;6.664;2022-07-23T07:30:00;4.18;;;2.45;;
9906;SDS011;4992;51.628;6.664;2022-07-23T07:32:26;2.75;;;2.40;;
9906;SDS011;4992;51.628;6.664;2022-07-23T07:34:51;4.00;;;2.35;;
9906;SDS011;4992;51.628;6.664;2022-07-23T07:37:17;3.55;;;2.20;;
9906;SDS011;4992;51.628;6.664;2022-07-23T07:39:43;2.95;;;1.83;;
9906;SDS011;4992;51.628;6.664;2022-07-23T07:42:11;3.00;;;2.25;;
9906;SDS011;4992;51.628;6.664;2022-07-23T07:44:36;2.45;;;2.08;;
9906;SDS011;4992;51.628;6.664;2022-07-23T07:47:02;3.55;;;2.15;;
9906;SDS011;4992;51.628;6.664;2022-07-23T07:49:27;2.38;;;2.20;;
9906;SDS011;4992;51.628;6.664;2022-07-23T07:51:53;5.63;;;2.38;;
9906;SDS011;4992;51.628;6.664;2022-07-23T07:54:18;2.08;;;1.88;;
9906;SDS011;4992;51.628;6.664;2022-07-23T07:56:44;3.42;;;2.10;;
9906;SDS011;4992;51.628;6.664;2022-07-23T07:59:09;3.03;;;2.38;;
9906;SDS011;4992;51.628;6.664;2022-07-23T08:01:36;3.50;;;2.40;;
9906;SDS011;4992;51.628;6.664;2022-07-23T08:04:01;3.45;;;2.45;;
9906;SDS011;4992;51.628;6.664;2022-07-23T08:06:27;2.08;;;1.95;;
9906;SDS011;4992;51.628;6.664;2022-07-23T08:08:52;4.15;;;2.28;;
9906;SDS011;4992;51.628;6.664;2022-07-23T08:11:18;4.38;;;2.47;;
9906;SDS011;4992;51.628;6.664;2022-07-23T08:13:43;2.95;;;2.60;;
9906;SDS011;4992;51.628;6.664;2022-07-23T08:16:09;3.28;;;2.67;;
9906;SDS011;4992;51.628;6.664;2022-07-23T08:18:35;3.85;;;2.20;;
9906;SDS011;4992;51.628;6.664;2022-07-23T08:21:01;2.58;;;1.83;;
9906;SDS011;4992;51.628;6.664;2022-07-23T08:23:27;4.63;;;2.53;;
9906;SDS011;4992;51.628;6.664;2022-07-23T08:25:52;5.50;;;4.82;;
9906;SDS011;4992;51.628;6.664;2022-07-23T08:28:18;2.40;;;2.15;;
9906;SDS011;4992;51.628;6.664;2022-07-23T08:30:44;2.20;;;1.92;;
9906;SDS011;4992;51.628;6.664;2022-07-23T08:33:13;2.70;;;1.70;;
9906;SDS011;4992;51.628;6.664;2022-07-23T08:35:45;2.10;;;1.77;;
9906;SDS011;4992;51.628;6.664;2022-07-23T08:38:12;3.17;;;1.80;;
9906;SDS011;4992;51.628;6.664;2022-07-23T08:40:43;1.60;;;1.38;;
9906;SDS011;4992;51.628;6.664;2022-07-23T08:43:12;1.83;;;1.35;;
9906;SDS011;4992;51.628;6.664;2022-07-23T08:45:40;2.55;;;1.48;;
9906;SDS011;4992;51.628;6.664;2022-07-23T08:48:11;1.50;;;1.40;;
9906;SDS011;4992;51.628;6.664;2022-07-23T08:50:41;1.80;;;1.70;;
9906;SDS011;4992;51.628;6.664;2022-07-23T08:53:11;2.22;;;1.13;;
9906;SDS011;4992;51.628;6.664;2022-07-23T08:55:37;1.35;;;1.17;;
9906;SDS011;4992;51.628;6.664;2022-07-23T08:58:03;2.85;;;1.77;;
9906;SDS011;4992;51.628;6.664;2022-07-23T09:00:29;3.33;;;1.85;;
9906;SDS011;4992;51.628;6.664;2022-07-23T09:02:55;3.17;;;1.90;;
9906;SDS011;4992;51.628;6.664;2022-07-23T09:05:20;2.30;;;1.85;;
9906;SDS011;4992;51.628;6.664;2022-07-23T09:10:51;4.25;;;2.13;;
9906;SDS011;4992;51.628;6.664;2022-07-23T09:21:24;41.47;;;25.17;;
9906;SDS011;4992;51.628;6.664;2022-07-23T09:23:58;16.92;;;9.82;;
9906;SDS011;4992;51.628;6.664;2022-07-23T09:29:15;6.63;;;3.90;;
9906;SDS011;4992;51.628;6.664;2022-07-23T09:31:56;2.70;;;1.60;;
9906;SDS011;4992;51.628;6.664;2022-07-23T09:34:34;2.45;;;1.70;;
9906;SDS011;4992;51.628;6.664;2022-07-23T09:37:10;1.85;;;1.30;;
9906;SDS011;4992;51.628;6.664;2022-07-23T09:39:38;2.45;;;2.00;;
9906;SDS011;4992;51.628;6.664;2022-07-23T09:44:53;1.75;;;1.38;;
9906;SDS011;4992;51.628;6.664;2022-07-23T09:47:20;1.83;;;1.30;;
9906;SDS011;4992;51.628;6.664;2022-07-23T09:52:34;2.45;;;1.00;;
9906;SDS011;4992;51.628;6.664;2022-07-23T09:55:07;4.80;;;1.40;;
9906;SDS011;4992;51.628;6.664;2022-07-23T09:57:33;1.33;;;1.23;;
9906;SDS011;4992;51.628;6.664;2022-07-23T10:00:00;1.58;;;1.00;;
9906;SDS011;4992;51.628;6.664;2022-07-23T10:02:29;3.05;;;1.30;;
9906;SDS011;4992;51.628;6.664;2022-07-23T10:04:57;1.55;;;1.00;;
9906;SDS011;4992;51.628;6.664;2022-07-23T10:07:23;0.80;;;0.80;;
9906;SDS011;4992;51.628;6.664;2022-07-23T10:09:51;1.08;;;0.70;;
9906;SDS011;4992;51.628;6.664;2022-07-23T10:12:19;1.65;;;1.10;;
9906;SDS011;4992;51.628;6.664;2022-07-23T10:15:06;2.65;;;0.95;;
9906;SDS011;4992;51.628;6.664;2022-07-23T10:17:33;1.70;;;0.88;;
9906;SDS011;4992;51.628;6.664;2022-07-23T10:20:00;3.05;;;0.88;;
9906;SDS011;4992;51.628;6.664;2022-07-23T10:22:28;1.95;;;0.80;;
9906;SDS011;4992;51.628;6.664;2022-07-23T10:28:04;1.48;;;1.00;;
9906;SDS011;4992;51.628;6.664;2022-07-23T10:33:56;1.25;;;0.90;;
9906;SDS011;4992;51.628;6.664;2022-07-23T10:36:30;2.15;;;1.10;;
9906;SDS011;4992;51.628;6.664;2022-07-23T10:39:08;1.90;;;1.23;;
9906;SDS011;4992;51.628;6.664;2022-07-23T10:41:40;1.17;;;0.80;;
9906;SDS011;4992;51.628;6.664;2022-07-23T10:44:07;1.15;;;0.98;;
9906;SDS011;4992;51.628;6.664;2022-07-23T10:46:34;1.70;;;0.98;;
9906;SDS011;4992;51.628;6.664;2022-07-23T10:54:42;0.93;;;0.73;;
9906;SDS011;4992;51.628;6.664;2022-07-23T10:57:28;1.73;;;0.80;;
9906;SDS011;4992;51.628;6.664;2022-07-23T11:02:37;0.82;;;0.82;;
9906;SDS011;4992;51.628;6.664;2022-07-23T11:05:09;0.90;;;0.80;;
9906;SDS011;4992;51.628;6.664;2022-07-23T11:07:37;0.70;;;0.50;;
9906;SDS011;4992;51.628;6.664;2022-07-23T11:10:36;1.42;;;0.68;;
9906;SDS011;4992;51.628;6.664;2022-07-23T11:16:10;1.88;;;0.65;;
9906;SDS011;4992;51.628;6.664;2022-07-23T11:31:53;1.13;;;0.52;;
9906;SDS011;4992;51.628;6.664;2022-07-23T11:34:33;0.82;;;0.70;;
9906;SDS011;4992;51.628;6.664;2022-07-23T11:37:26;1.15;;;0.70;;
9906;SDS011;4992;51.628;6.664;2022-07-23T11:39:55;1.00;;;0.80;;
9906;SDS011;4992;51.628;6.664;2022-07-23T11:42:21;1.05;;;1.00;;
9906;SDS011;4992;51.628;6.664;2022-07-23T11:44:49;0.88;;;0.77;;
9906;SDS011;4992;51.628;6.664;2022-07-23T11:47:15;1.55;;;0.90;;
9906;SDS011;4992;51.628;6.664;2022-07-23T11:49:54;2.13;;;0.77;;
9906;SDS011;4992;51.628;6.664;2022-07-23T11:52:20;1.48;;;0.75;;
9906;SDS011;4992;51.628;6.664;2022-07-23T11:54:51;0.80;;;0.60;;
9906;SDS011;4992;51.628;6.664;2022-07-23T11:57:26;1.38;;;0.80;;
9906;SDS011;4992;51.628;6.664;2022-07-23T11:59:57;3.85;;;0.60;;
9906;SDS011;4992;51.628;6.664;2022-07-23T12:02:31;0.68;;;0.68;;
9906;SDS011;4992;51.628;6.664;2022-07-23T12:04:57;1.55;;;0.77;;
9906;SDS011;4992;51.628;6.664;2022-07-23T12:07:24;4.00;;;1.17;;
9906;SDS011;4992;51.628;6.664;2022-07-23T12:09:50;0.82;;;0.80;;
9906;SDS011;4992;51.628;6.664;2022-07-23T12:12:16;1.10;;;0.80;;
9906;SDS011;4992;51.628;6.664;2022-07-23T12:14:51;1.00;;;0.90;;
9906;SDS011;4992;51.628;6.664;2022-07-23T12:17:26;2.67;;;0.85;;
9906;SDS011;4992;51.628;6.664;2022-07-23T12:19:54;0.60;;;0.60;;
9906;SDS011;4992;51.628;6.664;2022-07-23T12:22:20;1.33;;;0.60;;
9906;SDS011;4992;51.628;6.664;2022-07-23T12:27:20;1.25;;;0.50;;
9906;SDS011;4992;51.628;6.664;2022-07-23T12:29:47;5.05;;;0.88;;
9906;SDS011;4992;51.628;6.664;2022-07-23T12:32:20;1.58;;;1.00;;
9906;SDS011;4992;51.628;6.664;2022-07-23T12:35:01;1.75;;;0.85;;
9906;SDS011;4992;51.628;6.664;2022-07-23T12:37:32;0.70;;;0.60;;
9906;SDS011;4992;51.628;6.664;2022-07-23T12:40:19;1.42;;;0.77;;
9906;SDS011;4992;51.628;6.664;2022-07-23T12:42:50;1.80;;;1.00;;
9906;SDS011;4992;51.628;6.664;2022-07-23T12:45:20;5.22;;;1.35;;
9906;SDS011;4992;51.628;6.664;2022-07-23T12:47:56;0.90;;;0.90;;
9906;SDS011;4992;51.628;6.664;2022-07-23T12:50:32;1.05;;;0.80;;
9906;SDS011;4992;51.628;6.664;2022-07-23T12:53:07;9.93;;;1.15;;
9906;SDS011;4992;51.628;6.664;2022-07-23T12:55:35;1.08;;;0.80;;
9906;SDS011;4992;51.628;6.664;2022-07-23T12:58:09;1.77;;;1.00;;
9906;SDS011;4992;51.628;6.664;2022-07-23T13:00:57;3.05;;;1.00;;
9906;SDS011;4992;51.628;6.664;2022-07-23T13:03:29;1.10;;;0.70;;
9906;SDS011;4992;51.628;6.664;2022-07-23T13:06:00;1.10;;;0.82;;
9906;SDS011;4992;51.628;6.664;2022-07-23T13:08:28;1.45;;;1.02;;
9906;SDS011;4992;51.628;6.664;2022-07-23T13:10:55;0.80;;;0.80;;
9906;SDS011;4992;51.628;6.664;2022-07-23T13:13:22;1.45;;;0.77;;
9906;SDS011;4992;51.628;6.664;2022-07-23T13:15:49;1.08;;;0.82;;
9906;SDS011;4992;51.628;6.664;2022-07-23T13:18:15;5.28;;;1.50;;
9906;SDS011;4992;51.628;6.664;2022-07-23T13:20:42;5.97;;;1.17;;
9906;SDS011;4992;51.628;6.664;2022-07-23T13:23:08;3.47;;;1.10;;
9906;SDS011;4992;51.628;6.664;2022-07-23T13:25:34;3.60;;;1.17;;
9906;SDS011;4992;51.628;6.664;2022-07-23T13:28:00;1.05;;;0.95;;
9906;SDS011;4992;51.628;6.664;2022-07-23T13:30:26;1.55;;;0.80;;
9906;SDS011;4992;51.628;6.664;2022-07-23T13:32:51;4.35;;;1.13;;
9906;SDS011;4992;51.628;6.664;2022-07-23T13:35:17;3.65;;;1.20;;
9906;SDS011;4992;51.628;6.664;2022-07-23T13:37:42;2.47;;;1.25;;
9906;SDS011;4992;51.628;6.664;2022-07-23T13:40:08;1.00;;;0.90;;
9906;SDS011;4992;51.628;6.664;2022-07-23T13:42:34;5.28;;;2.00;;
9906;SDS011;4992;51.628;6.664;2022-07-23T13:45:01;2.03;;;1.23;;
9906;SDS011;4992;51.628;6.664;2022-07-23T13:47:27;0.82;;;0.80;;
9906;SDS011;4992;51.628;6.664;2022-07-23T13:49:53;3.13;;;1.08;;
9906;SDS011;4992;51.628;6.664;2022-07-23T13:52:18;3.80;;;1.35;;
9906;SDS011;4992;51.628;6.664;2022-07-23T13:54:44;3.42;;;0.90;;
9906;SDS011;4992;51.628;6.664;2022-07-23T13:57:09;3.40;;;1.35;;
9906;SDS011;4992;51.628;6.664;2022-07-23T13:59:35;2.47;;;1.50;;
9906;SDS011;4992;51.628;6.664;2022-07-23T14:02:02;1.58;;;1.00;;
9906;SDS011;4992;51.628;6.664;2022-07-23T14:04:28;3.22;;;1.08;;
9906;SDS011;4992;51.628;6.664;2022-07-23T14:06:54;3.85;;;1.42;;
9906;SDS011;4992;51.628;6.664;2022-07-23T14:09:20;2.00;;;1.08;;
9906;SDS011;4992;51.628;6.664;2022-07-23T14:11:47;1.83;;;1.20;;
9906;SDS011;4992;51.628;6.664;2022-07-23T14:14:12;2.80;;;1.20;;
9906;SDS011;4992;51.628;6.664;2022-07-23T14:16:38;2.28;;;1.15;;
9906;SDS011;4992;51.628;6.664;2022-07-23T14:19:03;1.65;;;1.25;;
9906;SDS011;4992;51.628;6.664;2022-07-23T14:21:29;1.13;;;1.00;;
9906;SDS011;4992;51.628;6.664;2022-07-23T14:23:55;0.80;;;0.80;;
9906;SDS011;4992;51.628;6.664;2022-07-23T14:26:20;1.30;;;1.20;;
9906;SDS011;4992;51.628;6.664;2022-07-23T14:28:46;1.73;;;1.20;;
9906;SDS011;4992;51.628;6.664;2022-07-23T14:31:11;1.40;;;1.30;;
9906;SDS011;4992;51.628;6.664;2022-07-23T14:33:37;3.53;;;1.40;;
9906;SDS011;4992;51.628;6.664;2022-07-23T14:36:02;1.55;;;1.40;;
9906;SDS011;4992;51.628;6.664;2022-07-23T14:38:28;1.67;;;1.20;;
9906;SDS011;4992;51.628;6.664;2022-07-23T14:40:55;1.40;;;1.30;;
9906;SDS011;4992;51.628;6.664;2022-07-23T14:43:21;1.50;;;1.40;;
9906;SDS011;4992;51.628;6.664;2022-07-23T14:45:47;1.27;;;1.15;;
9906;SDS011;4992;51.628;6.664;2022-07-23T14:48:12;6.63;;;1.48;;
9906;SDS011;4992;51.628;6.664;2022-07-23T14:50:38;2.67;;;1.30;;
9906;SDS011;4992;51.628;6.664;2022-07-23T14:53:04;2.63;;;1.20;;
9906;SDS011;4992;51.628;6.664;2022-07-23T14:55:32;1.30;;;1.20;;
9906;SDS011;4992;51.628;6.664;2022-07-23T14:57:59;2.25;;;1.35;;
9906;SDS011;4992;51.628;6.664;2022-07-23T15:00:25;1.60;;;1.50;;
9906;SDS011;4992;51.628;6.664;2022-07-23T15:02:51;3.20;;;1.15;;
9906;SDS011;4992;51.628;6.664;2022-07-23T15:05:18;2.00;;;1.38;;
9906;SDS011;4992;51.628;6.664;2022-07-23T15:07:43;2.13;;;1.33;;
9906;SDS011;4992;51.628;6.664;2022-07-23T15:10:09;2.80;;;1.67;;
9906;SDS011;4992;51.628;6.664;2022-07-23T15:12:35;1.02;;;1.02;;
9906;SDS011;4992;51.628;6.664;2022-07-23T15:15:00;1.40;;;1.30;;
9906;SDS011;4992;51.628;6.664;2022-07-23T15:17:26;1.95;;;1.30;;
9906;SDS011;4992;51.628;6.664;2022-07-23T15:19:51;1.60;;;1.50;;
9906;SDS011;4992;51.628;6.664;2022-07-23T15:22:17;2.65;;;1.60;;
9906;SDS011;4992;51.628;6.664;2022-07-23T15:24:43;2.22;;;1.80;;
9906;SDS011;4992;51.628;6.664;2022-07-23T15:27:08;2.97;;;1.30;;
9906;SDS011;4992;51.628;6.664;2022-07-23T15:29:34;1.60;;;1.50;;
9906;SDS011;4992;51.628;6.664;2022-07-23T15:32:00;1.70;;;1.38;;
9906;SDS011;4992;51.628;6.664;2022-07-23T15:34:26;1.92;;;1.75;;
9906;SDS011;4992;51.628;6.664;2022-07-23T15:36:52;2.30;;;1.10;;
9906;SDS011;4992;51.628;6.664;2022-07-23T15:39:17;2.58;;;1.50;;
9906;SDS011;4992;51.628;6.664;2022-07-23T15:41:43;1.95;;;1.30;;
9906;SDS011;4992;51.628;6.664;2022-07-23T15:44:08;2.65;;;1.75;;
9906;SDS011;4992;51.628;6.664;2022-07-23T15:46:34;4.05;;;1.50;;
9906;SDS011;4992;51.628;6.664;2022-07-23T15:49:00;1.50;;;1.38;;
9906;SDS011;4992;51.628;6.664;2022-07-23T15:51:25;1.75;;;1.40;;
9906;SDS011;4992;51.628;6.664;2022-07-23T15:53:51;3.10;;;1.60;;
9906;SDS011;4992;51.628;6.664;2022-07-23T15:56:17;2.13;;;1.67;;
9906;SDS011;4992;51.628;6.664;2022-07-23T15:58:42;1.73;;;1.60;;
9906;SDS011;4992;51.628;6.664;2022-07-23T16:01:08;2.28;;;1.27;;
9906;SDS011;4992;51.628;6.664;2022-07-23T16:03:34;2.85;;;1.50;;
9906;SDS011;4992;51.628;6.664;2022-07-23T16:06:01;1.63;;;1.52;;
9906;SDS011;4992;51.628;6.664;2022-07-23T16:08:27;2.25;;;1.40;;